Portada
METAR-TAF:

METAR-TAF

Aeroports :

Tirupati, Índia

latitud: 13-38-16N, longitud: 79-32-50E, altitud: 107 m

Observació

L'informe es va fer fa 7 hores i 36 minuts, a les 16:30 UTC
Vent 2 kt del Est/Nord-Est
Temperatura 33°C
Humitat 53%
Pressió 1006 hPa
Visibilitat: 7000 m
Núvols disperses a una alçada de 1500 ft

METAR: VOTP 211630Z 06002KT 7000 SCT015 33/22 Q1006

Hora: 05:36 (00:06 UTC)

Pronòstic

L'informe es va fer fa 1 hora i 6 minuts, a les 23:00 UTC
Pronòstic vàlid del 22 a les 00 UTC al 22 a les 09 UTC
Vent 8 kt del Sud-Oest
Visibilitat: 5000 m
Núvols disperses a una alçada de 1500 ft
calitja
Evolucionant progressivament
l' 22 a les 06 UTC al 22 a les 08 UTC
Vent 8 kt del Sud
Visibilitat: 6000 m
Núvols disperses a una alçada de 2000 ft
Núvols disperses a una alçada de 2500 ft

TAF: VOTP 212300Z 2200/2209 23008KT 5000 HZ SCT015 BECMG 2206/2208 18008KT 6000 SCT020 SCT025

Observacions i pronòstics meteorològics de més de 4000 aeroports (METAR i TAF).

Les estacions disponibles són els punts grocs i vermells al mapa.

Posi el ratolí al punt desitjat per veure el nom de l'estació.

Feu clic per veure les observacions i els pronòstics meteorològics.

Per canviar el mapa: feu clic els botons verds amb una creu de color negre per apropar; al botó verd amb un guió per allunyar la imatge; o en les fletxes verdes per a mapes adjacents.


METAR-TAF: